sensor_id;sensor_type;location;lat;lon;timestamp;P1;durP1;ratioP1;P2;durP2;ratioP2
45420;SDS011;55462;47.042;8.292;2023-03-01T00:00:25;16.67;;;14.97;;
45420;SDS011;55462;47.042;8.292;2023-03-01T00:02:50;16.33;;;14.73;;
45420;SDS011;55462;47.042;8.292;2023-03-01T00:05:16;16.73;;;14.90;;
45420;SDS011;55462;47.042;8.292;2023-03-01T00:07:41;16.70;;;15.00;;
45420;SDS011;55462;47.042;8.292;2023-03-01T00:10:06;17.10;;;15.30;;
45420;SDS011;55462;47.042;8.292;2023-03-01T00:12:32;16.73;;;14.93;;
45420;SDS011;55462;47.042;8.292;2023-03-01T00:14:57;18.73;;;15.73;;
45420;SDS011;55462;47.042;8.292;2023-03-01T00:17:23;18.13;;;16.07;;
45420;SDS011;55462;47.042;8.292;2023-03-01T00:19:48;17.47;;;15.67;;
45420;SDS011;55462;47.042;8.292;2023-03-01T00:22:13;17.47;;;15.70;;
45420;SDS011;55462;47.042;8.292;2023-03-01T00:24:39;16.87;;;15.17;;
45420;SDS011;55462;47.042;8.292;2023-03-01T00:27:04;17.90;;;16.00;;
45420;SDS011;55462;47.042;8.292;2023-03-01T00:29:29;16.90;;;15.13;;
45420;SDS011;55462;47.042;8.292;2023-03-01T00:31:54;18.90;;;15.40;;
45420;SDS011;55462;47.042;8.292;2023-03-01T00:34:20;18.80;;;16.70;;
45420;SDS011;55462;47.042;8.292;2023-03-01T00:36:45;17.83;;;16.03;;
45420;SDS011;55462;47.042;8.292;2023-03-01T00:39:12;18.07;;;16.17;;
45420;SDS011;55462;47.042;8.292;2023-03-01T00:41:39;17.83;;;15.93;;
45420;SDS011;55462;47.042;8.292;2023-03-01T00:44:05;18.03;;;16.10;;
45420;SDS011;55462;47.042;8.292;2023-03-01T00:46:30;18.93;;;16.93;;
45420;SDS011;55462;47.042;8.292;2023-03-01T00:48:55;17.67;;;15.63;;
45420;SDS011;55462;47.042;8.292;2023-03-01T00:51:25;18.00;;;15.93;;
45420;SDS011;55462;47.042;8.292;2023-03-01T00:53:52;18.10;;;16.20;;
45420;SDS011;55462;47.042;8.292;2023-03-01T00:56:18;17.23;;;15.43;;
45420;SDS011;55462;47.042;8.292;2023-03-01T00:58:44;17.40;;;15.60;;
45420;SDS011;55462;47.042;8.292;2023-03-01T01:01:11;17.30;;;15.60;;
45420;SDS011;55462;47.042;8.292;2023-03-01T01:03:48;17.87;;;15.97;;
45420;SDS011;55462;47.042;8.292;2023-03-01T01:06:19;17.27;;;15.47;;
45420;SDS011;55462;47.042;8.292;2023-03-01T01:08:49;18.57;;;15.83;;
45420;SDS011;55462;47.042;8.292;2023-03-01T01:11:15;16.97;;;15.20;;
45420;SDS011;55462;47.042;8.292;2023-03-01T01:13:41;18.10;;;15.07;;
45420;SDS011;55462;47.042;8.292;2023-03-01T01:16:07;17.40;;;14.80;;
45420;SDS011;55462;47.042;8.292;2023-03-01T01:18:32;17.93;;;16.03;;
45420;SDS011;55462;47.042;8.292;2023-03-01T01:21:02;18.37;;;16.43;;
45420;SDS011;55462;47.042;8.292;2023-03-01T01:23:28;17.10;;;15.30;;
45420;SDS011;55462;47.042;8.292;2023-03-01T01:25:54;17.40;;;15.70;;
45420;SDS011;55462;47.042;8.292;2023-03-01T01:28:19;20.13;;;16.57;;
45420;SDS011;55462;47.042;8.292;2023-03-01T01:30:44;17.90;;;16.17;;
45420;SDS011;55462;47.042;8.292;2023-03-01T01:33:10;17.93;;;16.03;;
45420;SDS011;55462;47.042;8.292;2023-03-01T01:35:35;17.57;;;15.77;;
45420;SDS011;55462;47.042;8.292;2023-03-01T01:38:00;18.70;;;16.63;;
45420;SDS011;55462;47.042;8.292;2023-03-01T01:40:26;18.63;;;16.53;;
45420;SDS011;55462;47.042;8.292;2023-03-01T01:42:51;20.10;;;16.60;;
45420;SDS011;55462;47.042;8.292;2023-03-01T01:47:53;19.23;;;16.80;;
45420;SDS011;55462;47.042;8.292;2023-03-01T01:50:20;18.80;;;16.47;;
45420;SDS011;55462;47.042;8.292;2023-03-01T01:52:46;18.57;;;16.67;;
45420;SDS011;55462;47.042;8.292;2023-03-01T01:55:18;19.97;;;16.23;;
45420;SDS011;55462;47.042;8.292;2023-03-01T01:57:51;18.53;;;16.30;;
45420;SDS011;55462;47.042;8.292;2023-03-01T02:00:23;18.80;;;16.27;;
45420;SDS011;55462;47.042;8.292;2023-03-01T02:02:52;21.03;;;18.13;;
45420;SDS011;55462;47.042;8.292;2023-03-01T02:05:43;19.20;;;17.10;;
45420;SDS011;55462;47.042;8.292;2023-03-01T02:08:12;19.27;;;17.27;;
45420;SDS011;55462;47.042;8.292;2023-03-01T02:10:38;18.33;;;16.43;;
45420;SDS011;55462;47.042;8.292;2023-03-01T02:13:04;20.40;;;16.53;;
45420;SDS011;55462;47.042;8.292;2023-03-01T02:15:33;19.63;;;17.63;;
45420;SDS011;55462;47.042;8.292;2023-03-01T02:17:59;19.30;;;17.20;;
45420;SDS011;55462;47.042;8.292;2023-03-01T02:20:27;20.03;;;17.77;;
45420;SDS011;55462;47.042;8.292;2023-03-01T02:22:59;20.03;;;18.00;;
45420;SDS011;55462;47.042;8.292;2023-03-01T02:25:31;20.97;;;18.60;;
45420;SDS011;55462;47.042;8.292;2023-03-01T02:30:36;21.77;;;17.90;;
45420;SDS011;55462;47.042;8.292;2023-03-01T02:33:02;19.83;;;17.73;;
45420;SDS011;55462;47.042;8.292;2023-03-01T02:35:30;20.93;;;17.37;;
45420;SDS011;55462;47.042;8.292;2023-03-01T02:37:58;19.13;;;17.17;;
45420;SDS011;55462;47.042;8.292;2023-03-01T02:40:25;20.63;;;17.57;;
45420;SDS011;55462;47.042;8.292;2023-03-01T02:42:52;19.43;;;17.43;;
45420;SDS011;55462;47.042;8.292;2023-03-01T02:45:20;20.17;;;18.07;;
45420;SDS011;55462;47.042;8.292;2023-03-01T02:47:46;19.70;;;17.60;;
45420;SDS011;55462;47.042;8.292;2023-03-01T02:55:46;19.67;;;17.30;;
45420;SDS011;55462;47.042;8.292;2023-03-01T02:58:11;19.27;;;17.27;;
45420;SDS011;55462;47.042;8.292;2023-03-01T03:00:37;20.37;;;17.33;;
45420;SDS011;55462;47.042;8.292;2023-03-01T03:03:05;19.70;;;17.13;;
45420;SDS011;55462;47.042;8.292;2023-03-01T03:05:31;20.67;;;17.73;;
45420;SDS011;55462;47.042;8.292;2023-03-01T03:07:57;19.53;;;17.47;;
45420;SDS011;55462;47.042;8.292;2023-03-01T03:10:25;20.93;;;17.90;;
45420;SDS011;55462;47.042;8.292;2023-03-01T03:12:55;19.40;;;17.17;;
45420;SDS011;55462;47.042;8.292;2023-03-01T03:15:23;19.27;;;17.20;;
45420;SDS011;55462;47.042;8.292;2023-03-01T03:17:49;20.03;;;17.63;;
45420;SDS011;55462;47.042;8.292;2023-03-01T03:20:15;18.87;;;16.80;;
45420;SDS011;55462;47.042;8.292;2023-03-01T03:22:44;19.53;;;17.50;;
45420;SDS011;55462;47.042;8.292;2023-03-01T03:25:10;18.87;;;16.70;;
45420;SDS011;55462;47.042;8.292;2023-03-01T03:27:39;19.97;;;17.90;;
45420;SDS011;55462;47.042;8.292;2023-03-01T03:30:06;18.90;;;16.97;;
45420;SDS011;55462;47.042;8.292;2023-03-01T03:32:37;19.47;;;17.13;;
45420;SDS011;55462;47.042;8.292;2023-03-01T03:35:04;21.23;;;18.93;;
45420;SDS011;55462;47.042;8.292;2023-03-01T03:37:34;18.87;;;16.90;;
45420;SDS011;55462;47.042;8.292;2023-03-01T03:40:22;20.33;;;18.13;;
45420;SDS011;55462;47.042;8.292;2023-03-01T03:42:47;19.40;;;17.43;;
45420;SDS011;55462;47.042;8.292;2023-03-01T03:45:13;18.87;;;16.90;;
45420;SDS011;55462;47.042;8.292;2023-03-01T03:47:38;19.70;;;17.60;;
45420;SDS011;55462;47.042;8.292;2023-03-01T03:50:04;20.13;;;18.07;;
45420;SDS011;55462;47.042;8.292;2023-03-01T03:52:29;20.57;;;18.23;;
45420;SDS011;55462;47.042;8.292;2023-03-01T03:54:55;22.30;;;19.73;;
45420;SDS011;55462;47.042;8.292;2023-03-01T03:57:20;21.43;;;19.23;;
45420;SDS011;55462;47.042;8.292;2023-03-01T03:59:46;21.07;;;18.50;;
45420;SDS011;55462;47.042;8.292;2023-03-01T04:02:11;20.67;;;18.47;;
45420;SDS011;55462;47.042;8.292;2023-03-01T04:04:36;20.63;;;18.27;;
45420;SDS011;55462;47.042;8.292;2023-03-01T04:07:02;20.60;;;18.40;;
45420;SDS011;55462;47.042;8.292;2023-03-01T04:09:27;20.60;;;18.50;;
45420;SDS011;55462;47.042;8.292;2023-03-01T04:11:55;20.57;;;18.37;;
45420;SDS011;55462;47.042;8.292;2023-03-01T04:14:20;20.97;;;18.77;;
45420;SDS011;55462;47.042;8.292;2023-03-01T04:16:45;22.30;;;19.83;;
45420;SDS011;55462;47.042;8.292;2023-03-01T04:19:11;20.67;;;18.57;;
45420;SDS011;55462;47.042;8.292;2023-03-01T04:21:36;19.90;;;17.80;;
45420;SDS011;55462;47.042;8.292;2023-03-01T04:24:01;20.93;;;18.70;;
45420;SDS011;55462;47.042;8.292;2023-03-01T04:26:28;22.40;;;18.13;;
45420;SDS011;55462;47.042;8.292;2023-03-01T04:28:54;23.93;;;19.50;;
45420;SDS011;55462;47.042;8.292;2023-03-01T04:31:20;21.33;;;18.57;;
45420;SDS011;55462;47.042;8.292;2023-03-01T04:36:16;22.53;;;19.07;;
45420;SDS011;55462;47.042;8.292;2023-03-01T04:38:43;23.30;;;19.07;;
45420;SDS011;55462;47.042;8.292;2023-03-01T04:41:12;20.33;;;18.13;;
45420;SDS011;55462;47.042;8.292;2023-03-01T04:43:38;21.20;;;18.90;;
45420;SDS011;55462;47.042;8.292;2023-03-01T04:46:07;21.17;;;18.87;;
45420;SDS011;55462;47.042;8.292;2023-03-01T04:48:35;21.63;;;19.30;;
45420;SDS011;55462;47.042;8.292;2023-03-01T04:51:02;20.93;;;18.70;;
45420;SDS011;55462;47.042;8.292;2023-03-01T04:53:27;20.53;;;18.33;;
45420;SDS011;55462;47.042;8.292;2023-03-01T04:55:53;21.87;;;19.40;;
45420;SDS011;55462;47.042;8.292;2023-03-01T04:58:19;21.60;;;19.13;;
45420;SDS011;55462;47.042;8.292;2023-03-01T05:00:45;21.60;;;18.77;;
45420;SDS011;55462;47.042;8.292;2023-03-01T05:03:10;21.73;;;19.30;;
45420;SDS011;55462;47.042;8.292;2023-03-01T05:05:36;22.13;;;19.40;;
45420;SDS011;55462;47.042;8.292;2023-03-01T05:08:04;21.30;;;19.10;;
45420;SDS011;55462;47.042;8.292;2023-03-01T05:10:31;22.47;;;19.53;;
45420;SDS011;55462;47.042;8.292;2023-03-01T05:12:57;22.37;;;19.53;;
45420;SDS011;55462;47.042;8.292;2023-03-01T05:15:23;22.40;;;19.70;;
45420;SDS011;55462;47.042;8.292;2023-03-01T05:17:50;22.60;;;18.67;;
45420;SDS011;55462;47.042;8.292;2023-03-01T05:20:16;21.27;;;18.93;;
45420;SDS011;55462;47.042;8.292;2023-03-01T05:22:42;21.97;;;19.57;;
45420;SDS011;55462;47.042;8.292;2023-03-01T05:25:07;22.13;;;19.67;;
45420;SDS011;55462;47.042;8.292;2023-03-01T05:27:33;24.03;;;20.07;;
45420;SDS011;55462;47.042;8.292;2023-03-01T05:29:58;23.83;;;19.27;;
45420;SDS011;55462;47.042;8.292;2023-03-01T05:32:24;21.00;;;18.77;;
45420;SDS011;55462;47.042;8.292;2023-03-01T05:34:49;21.07;;;18.40;;
45420;SDS011;55462;47.042;8.292;2023-03-01T05:37:17;23.73;;;19.10;;
45420;SDS011;55462;47.042;8.292;2023-03-01T05:39:42;23.93;;;19.13;;
45420;SDS011;55462;47.042;8.292;2023-03-01T05:42:10;24.60;;;20.10;;
45420;SDS011;55462;47.042;8.292;2023-03-01T05:44:36;22.67;;;19.30;;
45420;SDS011;55462;47.042;8.292;2023-03-01T05:47:02;23.43;;;20.03;;
45420;SDS011;55462;47.042;8.292;2023-03-01T05:49:27;21.07;;;18.30;;
45420;SDS011;55462;47.042;8.292;2023-03-01T05:51:53;23.03;;;19.50;;
45420;SDS011;55462;47.042;8.292;2023-03-01T05:54:19;25.40;;;19.87;;
45420;SDS011;55462;47.042;8.292;2023-03-01T05:56:45;21.90;;;19.03;;
45420;SDS011;55462;47.042;8.292;2023-03-01T05:59:11;23.47;;;20.37;;
45420;SDS011;55462;47.042;8.292;2023-03-01T06:01:36;24.07;;;19.80;;
45420;SDS011;55462;47.042;8.292;2023-03-01T06:04:02;23.47;;;20.37;;
45420;SDS011;55462;47.042;8.292;2023-03-01T06:06:28;23.10;;;18.90;;
45420;SDS011;55462;47.042;8.292;2023-03-01T06:08:54;21.27;;;18.73;;
45420;SDS011;55462;47.042;8.292;2023-03-01T06:11:19;21.57;;;18.30;;
45420;SDS011;55462;47.042;8.292;2023-03-01T06:13:45;23.37;;;18.43;;
45420;SDS011;55462;47.042;8.292;2023-03-01T06:16:11;21.40;;;19.03;;
45420;SDS011;55462;47.042;8.292;2023-03-01T06:18:37;23.63;;;20.17;;
45420;SDS011;55462;47.042;8.292;2023-03-01T06:21:03;22.07;;;18.83;;
45420;SDS011;55462;47.042;8.292;2023-03-01T06:23:28;23.23;;;19.93;;
45420;SDS011;55462;47.042;8.292;2023-03-01T06:25:54;24.67;;;20.43;;
45420;SDS011;55462;47.042;8.292;2023-03-01T06:28:19;22.50;;;18.83;;
45420;SDS011;55462;47.042;8.292;2023-03-01T06:30:45;22.60;;;18.80;;
45420;SDS011;55462;47.042;8.292;2023-03-01T06:33:10;22.63;;;19.77;;
45420;SDS011;55462;47.042;8.292;2023-03-01T06:35:36;21.50;;;18.93;;
45420;SDS011;55462;47.042;8.292;2023-03-01T06:38:02;22.40;;;18.53;;
45420;SDS011;55462;47.042;8.292;2023-03-01T06:40:28;21.67;;;18.77;;
45420;SDS011;55462;47.042;8.292;2023-03-01T06:42:54;20.07;;;17.47;;
45420;SDS011;55462;47.042;8.292;2023-03-01T06:45:20;25.60;;;19.00;;
45420;SDS011;55462;47.042;8.292;2023-03-01T06:47:45;20.97;;;18.53;;
45420;SDS011;55462;47.042;8.292;2023-03-01T06:50:11;21.37;;;18.37;;
45420;SDS011;55462;47.042;8.292;2023-03-01T06:52:37;21.90;;;18.83;;
45420;SDS011;55462;47.042;8.292;2023-03-01T06:55:02;20.47;;;17.90;;
45420;SDS011;55462;47.042;8.292;2023-03-01T06:57:28;22.23;;;19.03;;
45420;SDS011;55462;47.042;8.292;2023-03-01T06:59:54;22.83;;;18.53;;
45420;SDS011;55462;47.042;8.292;2023-03-01T07:02:19;21.97;;;19.57;;
45420;SDS011;55462;47.042;8.292;2023-03-01T07:04:45;22.47;;;18.67;;
45420;SDS011;55462;47.042;8.292;2023-03-01T07:07:10;25.43;;;18.87;;
45420;SDS011;55462;47.042;8.292;2023-03-01T07:09:36;25.13;;;19.27;;
45420;SDS011;55462;47.042;8.292;2023-03-01T07:12:01;21.23;;;18.50;;
45420;SDS011;55462;47.042;8.292;2023-03-01T07:14:26;23.47;;;20.03;;
45420;SDS011;55462;47.042;8.292;2023-03-01T07:16:53;22.97;;;19.33;;
45420;SDS011;55462;47.042;8.292;2023-03-01T07:19:18;21.87;;;19.50;;
45420;SDS011;55462;47.042;8.292;2023-03-01T07:21:44;22.13;;;18.63;;
45420;SDS011;55462;47.042;8.292;2023-03-01T07:24:09;21.27;;;18.97;;
45420;SDS011;55462;47.042;8.292;2023-03-01T07:26:35;21.53;;;19.23;;
45420;SDS011;55462;47.042;8.292;2023-03-01T07:29:01;22.00;;;18.47;;
45420;SDS011;55462;47.042;8.292;2023-03-01T07:31:27;19.80;;;17.70;;
45420;SDS011;55462;47.042;8.292;2023-03-01T07:33:53;22.80;;;19.07;;
45420;SDS011;55462;47.042;8.292;2023-03-01T07:36:19;21.10;;;17.23;;
45420;SDS011;55462;47.042;8.292;2023-03-01T07:38:44;21.93;;;19.23;;
45420;SDS011;55462;47.042;8.292;2023-03-01T07:41:09;22.90;;;19.47;;
45420;SDS011;55462;47.042;8.292;2023-03-01T07:43:35;23.47;;;19.73;;
45420;SDS011;55462;47.042;8.292;2023-03-01T07:46:01;23.00;;;19.83;;
45420;SDS011;55462;47.042;8.292;2023-03-01T07:48:27;22.90;;;18.33;;
45420;SDS011;55462;47.042;8.292;2023-03-01T07:50:53;22.20;;;18.93;;
45420;SDS011;55462;47.042;8.292;2023-03-01T07:53:18;22.90;;;18.23;;
45420;SDS011;55462;47.042;8.292;2023-03-01T07:55:44;21.30;;;18.57;;
45420;SDS011;55462;47.042;8.292;2023-03-01T07:58:09;22.57;;;19.43;;
45420;SDS011;55462;47.042;8.292;2023-03-01T08:00:34;22.80;;;18.83;;
45420;SDS011;55462;47.042;8.292;2023-03-01T08:03:00;23.70;;;19.40;;
45420;SDS011;55462;47.042;8.292;2023-03-01T08:05:26;21.47;;;18.13;;
45420;SDS011;55462;47.042;8.292;2023-03-01T08:07:51;22.87;;;19.07;;
45420;SDS011;55462;47.042;8.292;2023-03-01T08:10:17;21.03;;;17.57;;
45420;SDS011;55462;47.042;8.292;2023-03-01T08:12:42;22.47;;;18.07;;
45420;SDS011;55462;47.042;8.292;2023-03-01T08:15:08;23.77;;;19.10;;
45420;SDS011;55462;47.042;8.292;2023-03-01T08:17:33;20.40;;;17.57;;
45420;SDS011;55462;47.042;8.292;2023-03-01T08:19:59;21.13;;;18.20;;
45420;SDS011;55462;47.042;8.292;2023-03-01T08:22:24;19.63;;;17.10;;
45420;SDS011;55462;47.042;8.292;2023-03-01T08:24:49;21.67;;;19.00;;
45420;SDS011;55462;47.042;8.292;2023-03-01T08:27:15;23.83;;;18.37;;
45420;SDS011;55462;47.042;8.292;2023-03-01T08:29:41;21.30;;;18.30;;
45420;SDS011;55462;47.042;8.292;2023-03-01T08:32:06;22.63;;;19.03;;
45420;SDS011;55462;47.042;8.292;2023-03-01T08:34:32;22.10;;;18.60;;
45420;SDS011;55462;47.042;8.292;2023-03-01T08:37:00;21.33;;;18.83;;
45420;SDS011;55462;47.042;8.292;2023-03-01T08:39:26;21.33;;;18.40;;
45420;SDS011;55462;47.042;8.292;2023-03-01T08:41:51;20.67;;;17.80;;
45420;SDS011;55462;47.042;8.292;2023-03-01T08:44:16;23.07;;;18.40;;
45420;SDS011;55462;47.042;8.292;2023-03-01T08:46:42;22.27;;;18.20;;
45420;SDS011;55462;47.042;8.292;2023-03-01T08:49:12;20.63;;;17.43;;
45420;SDS011;55462;47.042;8.292;2023-03-01T08:51:39;20.63;;;18.07;;
45420;SDS011;55462;47.042;8.292;2023-03-01T08:54:14;20.00;;;17.90;;
45420;SDS011;55462;47.042;8.292;2023-03-01T08:56:41;21.10;;;17.80;;
45420;SDS011;55462;47.042;8.292;2023-03-01T08:59:07;21.93;;;18.40;;
45420;SDS011;55462;47.042;8.292;2023-03-01T09:01:32;21.53;;;17.00;;
45420;SDS011;55462;47.042;8.292;2023-03-01T09:03:57;20.97;;;16.83;;
45420;SDS011;55462;47.042;8.292;2023-03-01T09:06:23;19.03;;;16.97;;
45420;SDS011;55462;47.042;8.292;2023-03-01T09:08:49;21.10;;;17.67;;
45420;SDS011;55462;47.042;8.292;2023-03-01T09:11:19;19.63;;;17.10;;
45420;SDS011;55462;47.042;8.292;2023-03-01T09:13:46;23.57;;;18.20;;
45420;SDS011;55462;47.042;8.292;2023-03-01T09:16:14;21.23;;;17.17;;
45420;SDS011;55462;47.042;8.292;2023-03-01T09:18:43;19.10;;;17.07;;
45420;SDS011;55462;47.042;8.292;2023-03-01T09:21:13;20.90;;;18.57;;
45420;SDS011;55462;47.042;8.292;2023-03-01T09:23:40;21.07;;;18.30;;
45420;SDS011;55462;47.042;8.292;2023-03-01T09:26:12;22.77;;;17.33;;
45420;SDS011;55462;47.042;8.292;2023-03-01T09:28:41;20.33;;;17.63;;
45420;SDS011;55462;47.042;8.292;2023-03-01T09:31:06;21.20;;;17.77;;
45420;SDS011;55462;47.042;8.292;2023-03-01T09:33:32;20.53;;;16.70;;
45420;SDS011;55462;47.042;8.292;2023-03-01T09:38:23;20.70;;;18.00;;
45420;SDS011;55462;47.042;8.292;2023-03-01T09:40:49;21.77;;;18.20;;
45420;SDS011;55462;47.042;8.292;2023-03-01T09:46:06;21.07;;;15.27;;
45420;SDS011;55462;47.042;8.292;2023-03-01T09:48:37;21.90;;;17.47;;
45420;SDS011;55462;47.042;8.292;2023-03-01T09:51:08;21.30;;;17.67;;
45420;SDS011;55462;47.042;8.292;2023-03-01T09:53:43;20.50;;;17.50;;
45420;SDS011;55462;47.042;8.292;2023-03-01T09:56:17;21.73;;;17.07;;
45420;SDS011;55462;47.042;8.292;2023-03-01T10:01:32;19.77;;;16.80;;
45420;SDS011;55462;47.042;8.292;2023-03-01T10:09:36;21.40;;;17.60;;
45420;SDS011;55462;47.042;8.292;2023-03-01T10:12:02;20.73;;;17.17;;
45420;SDS011;55462;47.042;8.292;2023-03-01T10:14:34;20.07;;;16.57;;
45420;SDS011;55462;47.042;8.292;2023-03-01T10:17:03;19.90;;;17.00;;
45420;SDS011;55462;47.042;8.292;2023-03-01T10:19:31;19.70;;;16.67;;
45420;SDS011;55462;47.042;8.292;2023-03-01T10:22:42;19.13;;;16.67;;
45420;SDS011;55462;47.042;8.292;2023-03-01T10:24:58;19.77;;;16.63;;
45420;SDS011;55462;47.042;8.292;2023-03-01T10:32:27;20.77;;;17.23;;
45420;SDS011;55462;47.042;8.292;2023-03-01T10:34:53;19.37;;;16.17;;
45420;SDS011;55462;47.042;8.292;2023-03-01T10:37:19;20.77;;;17.13;;
45420;SDS011;55462;47.042;8.292;2023-03-01T10:39:56;17.63;;;15.53;;
45420;SDS011;55462;47.042;8.292;2023-03-01T10:42:32;21.87;;;16.73;;
45420;SDS011;55462;47.042;8.292;2023-03-01T10:47:44;21.73;;;17.73;;
45420;SDS011;55462;47.042;8.292;2023-03-01T10:50:19;19.70;;;16.57;;
45420;SDS011;55462;47.042;8.292;2023-03-01T10:52:55;19.93;;;17.40;;
45420;SDS011;55462;47.042;8.292;2023-03-01T10:55:29;20.30;;;16.43;;
45420;SDS011;55462;47.042;8.292;2023-03-01T11:01:24;17.83;;;15.73;;
45420;SDS011;55462;47.042;8.292;2023-03-01T11:03:33;19.47;;;16.00;;
45420;SDS011;55462;47.042;8.292;2023-03-01T11:06:17;20.53;;;17.40;;
45420;SDS011;55462;47.042;8.292;2023-03-01T11:08:47;18.63;;;16.63;;
45420;SDS011;55462;47.042;8.292;2023-03-01T11:11:22;22.17;;;17.50;;
45420;SDS011;55462;47.042;8.292;2023-03-01T11:13:49;20.60;;;16.47;;
45420;SDS011;55462;47.042;8.292;2023-03-01T11:16:17;19.37;;;16.07;;
45420;SDS011;55462;47.042;8.292;2023-03-01T11:18:59;19.77;;;16.47;;
45420;SDS011;55462;47.042;8.292;2023-03-01T11:22:07;18.47;;;15.83;;
45420;SDS011;55462;47.042;8.292;2023-03-01T11:27:15;19.37;;;16.13;;
45420;SDS011;55462;47.042;8.292;2023-03-01T11:29:44;20.80;;;17.20;;
45420;SDS011;55462;47.042;8.292;2023-03-01T11:32:12;20.27;;;16.60;;
45420;SDS011;55462;47.042;8.292;2023-03-01T11:34:40;19.33;;;16.57;;
45420;SDS011;55462;47.042;8.292;2023-03-01T11:38:12;23.20;;;16.93;;
45420;SDS011;55462;47.042;8.292;2023-03-01T11:48:55;20.90;;;17.37;;
45420;SDS011;55462;47.042;8.292;2023-03-01T11:57:03;18.97;;;15.53;;
45420;SDS011;55462;47.042;8.292;2023-03-01T11:59:41;18.40;;;15.67;;
45420;SDS011;55462;47.042;8.292;2023-03-01T12:05:21;19.63;;;16.03;;
45420;SDS011;55462;47.042;8.292;2023-03-01T12:08:12;19.33;;;16.10;;
45420;SDS011;55462;47.042;8.292;2023-03-01T12:10:48;19.77;;;16.87;;
45420;SDS011;55462;47.042;8.292;2023-03-01T12:13:42;18.90;;;16.23;;
45420;SDS011;55462;47.042;8.292;2023-03-01T12:32:44;21.33;;;15.87;;
45420;SDS011;55462;47.042;8.292;2023-03-01T12:35:20;18.77;;;15.17;;
45420;SDS011;55462;47.042;8.292;2023-03-01T12:38:14;18.27;;;15.50;;
45420;SDS011;55462;47.042;8.292;2023-03-01T12:46:44;18.07;;;15.57;;
45420;SDS011;55462;47.042;8.292;2023-03-01T12:49:22;20.70;;;15.90;;
45420;SDS011;55462;47.042;8.292;2023-03-01T12:51:53;18.60;;;14.97;;
45420;SDS011;55462;47.042;8.292;2023-03-01T12:54:28;17.83;;;15.40;;
45420;SDS011;55462;47.042;8.292;2023-03-01T12:56:57;19.07;;;15.37;;
45420;SDS011;55462;47.042;8.292;2023-03-01T12:59:34;18.50;;;15.77;;
45420;SDS011;55462;47.042;8.292;2023-03-01T13:04:53;17.80;;;15.50;;
45420;SDS011;55462;47.042;8.292;2023-03-01T13:07:52;15.83;;;13.90;;
45420;SDS011;55462;47.042;8.292;2023-03-01T13:10:40;17.37;;;15.57;;
45420;SDS011;55462;47.042;8.292;2023-03-01T13:13:18;16.80;;;14.43;;
45420;SDS011;55462;47.042;8.292;2023-03-01T13:15:46;17.57;;;15.50;;
45420;SDS011;55462;47.042;8.292;2023-03-01T13:23:12;18.03;;;16.10;;
45420;SDS011;55462;47.042;8.292;2023-03-01T13:31:03;17.40;;;15.10;;
45420;SDS011;55462;47.042;8.292;2023-03-01T13:35:55;17.97;;;15.63;;
45420;SDS011;55462;47.042;8.292;2023-03-01T13:41:03;18.30;;;14.87;;
45420;SDS011;55462;47.042;8.292;2023-03-01T13:43:30;17.83;;;15.90;;
45420;SDS011;55462;47.042;8.292;2023-03-01T13:46:10;19.50;;;15.07;;
45420;SDS011;55462;47.042;8.292;2023-03-01T13:48:36;17.60;;;14.80;;
45420;SDS011;55462;47.042;8.292;2023-03-01T13:51:04;20.30;;;14.97;;
45420;SDS011;55462;47.042;8.292;2023-03-01T13:53:36;17.67;;;15.03;;
45420;SDS011;55462;47.042;8.292;2023-03-01T13:56:25;17.73;;;15.10;;
45420;SDS011;55462;47.042;8.292;2023-03-01T14:01:25;16.83;;;15.03;;
45420;SDS011;55462;47.042;8.292;2023-03-01T14:03:52;19.27;;;14.27;;
45420;SDS011;55462;47.042;8.292;2023-03-01T14:06:28;18.10;;;14.80;;
45420;SDS011;55462;47.042;8.292;2023-03-01T14:09:05;16.57;;;14.57;;
45420;SDS011;55462;47.042;8.292;2023-03-01T14:19:55;17.87;;;14.77;;
45420;SDS011;55462;47.042;8.292;2023-03-01T14:24:57;18.70;;;15.47;;
45420;SDS011;55462;47.042;8.292;2023-03-01T14:27:32;18.80;;;15.40;;
45420;SDS011;55462;47.042;8.292;2023-03-01T14:30:01;15.70;;;14.00;;
45420;SDS011;55462;47.042;8.292;2023-03-01T14:32:30;16.23;;;14.50;;
45420;SDS011;55462;47.042;8.292;2023-03-01T14:34:58;16.33;;;14.30;;
45420;SDS011;55462;47.042;8.292;2023-03-01T14:37:25;17.50;;;14.93;;
45420;SDS011;55462;47.042;8.292;2023-03-01T14:39:55;16.67;;;14.80;;
45420;SDS011;55462;47.042;8.292;2023-03-01T14:42:21;17.03;;;15.23;;
45420;SDS011;55462;47.042;8.292;2023-03-01T14:44:49;16.97;;;15.17;;
45420;SDS011;55462;47.042;8.292;2023-03-01T14:47:20;19.60;;;14.87;;
45420;SDS011;55462;47.042;8.292;2023-03-01T14:49:53;18.80;;;15.57;;
45420;SDS011;55462;47.042;8.292;2023-03-01T14:52:25;20.93;;;14.90;;
45420;SDS011;55462;47.042;8.292;2023-03-01T14:54:53;17.70;;;15.80;;
45420;SDS011;55462;47.042;8.292;2023-03-01T14:57:23;16.83;;;15.13;;
45420;SDS011;55462;47.042;8.292;2023-03-01T14:59:50;16.73;;;14.40;;
45420;SDS011;55462;47.042;8.292;2023-03-01T15:02:19;19.83;;;15.43;;
45420;SDS011;55462;47.042;8.292;2023-03-01T15:04:46;16.93;;;14.77;;
45420;SDS011;55462;47.042;8.292;2023-03-01T15:07:14;16.43;;;14.57;;
45420;SDS011;55462;47.042;8.292;2023-03-01T15:09:39;18.87;;;16.87;;
45420;SDS011;55462;47.042;8.292;2023-03-01T15:14:57;17.40;;;15.00;;
45420;SDS011;55462;47.042;8.292;2023-03-01T15:19:56;17.83;;;15.93;;
45420;SDS011;55462;47.042;8.292;2023-03-01T15:22:22;18.90;;;16.13;;
45420;SDS011;55462;47.042;8.292;2023-03-01T15:24:50;16.93;;;15.13;;
45420;SDS011;55462;47.042;8.292;2023-03-01T15:27:16;21.43;;;16.77;;
45420;SDS011;55462;47.042;8.292;2023-03-01T15:29:47;18.57;;;16.57;;
45420;SDS011;55462;47.042;8.292;2023-03-01T15:34:49;18.30;;;16.40;;
45420;SDS011;55462;47.042;8.292;2023-03-01T15:42:59;18.27;;;15.00;;
45420;SDS011;55462;47.042;8.292;2023-03-01T15:45:27;17.50;;;14.33;;
45420;SDS011;55462;47.042;8.292;2023-03-01T15:47:55;19.07;;;16.13;;
45420;SDS011;55462;47.042;8.292;2023-03-01T15:50:27;16.50;;;14.77;;
45420;SDS011;55462;47.042;8.292;2023-03-01T15:52:55;17.70;;;15.80;;
45420;SDS011;55462;47.042;8.292;2023-03-01T15:55:22;19.03;;;16.47;;
45420;SDS011;55462;47.042;8.292;2023-03-01T15:58:05;18.43;;;15.03;;
45420;SDS011;55462;47.042;8.292;2023-03-01T16:00:35;16.97;;;14.40;;
45420;SDS011;55462;47.042;8.292;2023-03-01T16:03:01;17.97;;;15.17;;
45420;SDS011;55462;47.042;8.292;2023-03-01T16:05:28;18.70;;;15.73;;
45420;SDS011;55462;47.042;8.292;2023-03-01T16:07:55;18.77;;;16.47;;
45420;SDS011;55462;47.042;8.292;2023-03-01T16:10:21;21.33;;;16.63;;
45420;SDS011;55462;47.042;8.292;2023-03-01T16:12:47;17.77;;;15.10;;
45420;SDS011;55462;47.042;8.292;2023-03-01T16:15:14;18.50;;;14.67;;
45420;SDS011;55462;47.042;8.292;2023-03-01T16:17:45;17.20;;;15.13;;
45420;SDS011;55462;47.042;8.292;2023-03-01T16:20:11;18.30;;;15.50;;
45420;SDS011;55462;47.042;8.292;2023-03-01T16:22:37;19.23;;;15.20;;
45420;SDS011;55462;47.042;8.292;2023-03-01T16:25:02;17.90;;;15.13;;
45420;SDS011;55462;47.042;8.292;2023-03-01T16:27:27;17.23;;;15.43;;
45420;SDS011;55462;47.042;8.292;2023-03-01T16:29:53;23.60;;;16.20;;
45420;SDS011;55462;47.042;8.292;2023-03-01T16:32:18;16.97;;;14.73;;